createdAt,value
2018-12-25T00:01:29.166Z,5.37
2018-12-25T00:03:59.282Z,6.27
2018-12-25T00:06:29.006Z,5.87
2018-12-25T00:08:58.742Z,5.93
2018-12-25T00:11:28.457Z,5.93
2018-12-25T00:13:58.256Z,5.80
2018-12-25T00:16:28.013Z,6.37
2018-12-25T00:19:05.943Z,7.17
2018-12-25T00:21:29.195Z,6.73
2018-12-25T00:23:58.905Z,6.47
2018-12-25T00:26:28.668Z,6.63
2018-12-25T00:28:58.731Z,6.50
2018-12-25T00:31:28.447Z,6.17
2018-12-25T00:33:58.483Z,6.20
2018-12-25T00:36:28.212Z,6.00
2018-12-25T00:38:58.317Z,6.10
2018-12-25T00:41:28.113Z,6.77
2018-12-25T00:43:57.822Z,6.63
2018-12-25T00:46:27.960Z,6.43
2018-12-25T00:48:57.731Z,6.60
2018-12-25T00:51:27.473Z,7.30
2018-12-25T00:53:57.251Z,6.43
2018-12-25T00:56:26.975Z,6.27
2018-12-25T00:58:56.654Z,5.90
2018-12-25T01:01:26.460Z,6.87
2018-12-25T01:03:56.236Z,6.67
2018-12-25T01:06:25.929Z,6.63
2018-12-25T01:08:55.708Z,6.07
2018-12-25T01:11:25.474Z,7.03
2018-12-25T01:13:55.242Z,6.80
2018-12-25T01:16:25.496Z,6.93
2018-12-25T01:18:55.337Z,6.97
2018-12-25T01:21:25.471Z,6.53
2018-12-25T01:23:55.331Z,6.80
2018-12-25T01:26:25.359Z,7.00
2018-12-25T01:28:55.190Z,7.50
2018-12-25T01:31:25.302Z,7.43
2018-12-25T01:33:55.002Z,7.47
2018-12-25T01:36:24.775Z,7.13
2018-12-25T01:38:54.561Z,6.70
2018-12-25T01:41:24.407Z,7.47
2018-12-25T01:43:54.108Z,7.17
2018-12-25T01:46:24.256Z,7.40
2018-12-25T01:48:54.373Z,7.27
2018-12-25T01:51:24.156Z,6.60
2018-12-25T01:53:53.857Z,6.87
2018-12-25T01:56:23.637Z,6.83
2018-12-25T01:58:54.117Z,7.23
2018-12-25T02:01:23.827Z,6.27
2018-12-25T02:03:53.609Z,6.50
2018-12-25T02:06:23.334Z,7.33
2018-12-25T02:08:53.091Z,7.23
2018-12-25T02:13:54.788Z,7.30
2018-12-25T02:16:24.538Z,7.17
2018-12-25T02:18:54.232Z,7.30
2018-12-25T02:21:23.962Z,7.20
2018-12-25T02:23:53.741Z,7.27
2018-12-25T02:26:23.502Z,7.60
2018-12-25T02:28:53.232Z,7.70
2018-12-25T02:31:23.343Z,6.97
2018-12-25T02:33:53.117Z,7.43
2018-12-25T02:36:22.814Z,6.70
2018-12-25T02:38:52.586Z,7.37
2018-12-25T02:41:22.297Z,7.13
2018-12-25T02:43:52.004Z,6.87
2018-12-25T02:46:22.132Z,7.53
2018-12-25T02:48:51.885Z,8.80
2018-12-25T02:51:21.939Z,8.90
2018-12-25T02:53:51.965Z,8.17
2018-12-25T02:56:21.680Z,8.13
2018-12-25T02:58:51.390Z,8.37
2018-12-25T03:01:21.161Z,7.83
2018-12-25T03:03:50.891Z,8.00
2018-12-25T03:06:20.671Z,7.57
2018-12-25T03:08:50.459Z,8.77
2018-12-25T03:11:20.177Z,8.13
2018-12-25T03:13:49.917Z,8.13
2018-12-25T03:16:19.631Z,7.50
2018-12-25T03:18:49.449Z,7.87
2018-12-25T03:21:19.181Z,7.40
2018-12-25T03:23:48.973Z,8.00
2018-12-25T03:26:18.816Z,8.10
2018-12-25T03:28:48.915Z,7.60
2018-12-25T03:31:18.764Z,8.70
2018-12-25T03:33:49.092Z,8.50
2018-12-25T03:36:19.284Z,7.93
2018-12-25T03:38:49.082Z,7.87
2018-12-25T03:41:19.070Z,8.13
2018-12-25T03:43:48.931Z,8.30
2018-12-25T03:46:19.189Z,8.20
2018-12-25T03:48:48.985Z,7.57
2018-12-25T03:51:18.842Z,8.00
2018-12-25T03:53:48.975Z,7.17
2018-12-25T03:56:18.878Z,7.93
2018-12-25T03:58:49.127Z,7.83
2018-12-25T04:01:18.896Z,7.60
2018-12-25T04:03:48.881Z,8.87
2018-12-25T04:09:27.681Z,8.43
2018-12-25T04:11:57.510Z,7.47
2018-12-25T04:14:27.405Z,7.00
2018-12-25T04:16:57.184Z,8.17
2018-12-25T04:19:26.991Z,8.77
2018-12-25T04:21:56.871Z,8.47
2018-12-25T04:24:26.616Z,7.10
2018-12-25T04:26:56.453Z,7.90
2018-12-25T04:29:26.973Z,8.27
2018-12-25T04:31:56.835Z,8.30
2018-12-25T04:34:26.580Z,7.00
2018-12-25T04:37:15.365Z,7.90
2018-12-25T04:39:45.124Z,7.47
2018-12-25T04:42:14.871Z,7.40
2018-12-25T04:44:44.667Z,7.70
2018-12-25T04:47:14.463Z,7.97
2018-12-25T04:49:44.310Z,7.10
2018-12-25T04:52:14.162Z,7.40
2018-12-25T04:54:44.005Z,8.23
2018-12-25T04:57:14.288Z,7.73
2018-12-25T04:59:44.085Z,7.63
2018-12-25T05:02:13.879Z,7.20
2018-12-25T05:04:43.664Z,6.97
2018-12-25T05:07:13.473Z,7.33
2018-12-25T05:09:43.349Z,6.90
2018-12-25T05:12:13.480Z,7.03
2018-12-25T05:14:43.644Z,6.83
2018-12-25T05:17:13.470Z,7.83
2018-12-25T05:19:43.392Z,7.30
2018-12-25T05:22:13.225Z,7.83
2018-12-25T05:24:43.145Z,7.53
2018-12-25T05:27:13.058Z,6.90
2018-12-25T05:29:42.899Z,7.33
2018-12-25T05:32:13.093Z,7.00
2018-12-25T05:34:42.871Z,7.90
2018-12-25T05:37:12.695Z,6.97
2018-12-25T05:39:42.855Z,7.30
2018-12-25T05:42:12.742Z,6.90
2018-12-25T05:44:43.516Z,6.87
2018-12-25T05:47:14.545Z,6.97
2018-12-25T05:49:44.389Z,7.33
2018-12-25T05:52:14.217Z,6.50
2018-12-25T05:54:44.113Z,7.60
2018-12-25T05:57:14.004Z,6.70
2018-12-25T05:59:44.609Z,7.30
2018-12-25T06:02:14.430Z,7.10
2018-12-25T06:04:44.330Z,6.87
2018-12-25T06:07:14.665Z,7.33
2018-12-25T06:09:45.390Z,8.07
2018-12-25T06:12:15.198Z,7.43
2018-12-25T06:14:44.992Z,8.10
2018-12-25T06:17:14.862Z,7.33
2018-12-25T06:19:44.655Z,8.07
2018-12-25T06:22:14.516Z,6.97
2018-12-25T06:24:44.335Z,6.90
2018-12-25T06:27:14.163Z,7.10
2018-12-25T06:29:44.417Z,7.50
2018-12-25T06:32:14.665Z,7.63
2018-12-25T06:34:44.912Z,7.57
2018-12-25T06:37:14.783Z,8.10
2018-12-25T06:39:44.649Z,8.07
2018-12-25T06:42:14.697Z,8.17
2018-12-25T06:44:44.654Z,7.77
2018-12-25T06:47:14.552Z,8.10
2018-12-25T06:49:44.410Z,7.67
2018-12-25T06:52:14.223Z,8.40
2018-12-25T06:54:44.020Z,7.63
2018-12-25T06:57:13.878Z,7.33
2018-12-25T06:59:43.682Z,7.70
2018-12-25T07:02:13.488Z,7.77
2018-12-25T07:04:43.344Z,7.67
2018-12-25T07:07:13.519Z,7.33
2018-12-25T07:09:43.455Z,7.23
2018-12-25T07:12:13.394Z,8.10
2018-12-25T07:14:43.457Z,7.70
2018-12-25T07:17:13.290Z,6.97
2018-12-25T07:19:43.076Z,7.97
2018-12-25T07:22:13.037Z,7.23
2018-12-25T07:24:42.906Z,7.30
2018-12-25T07:27:12.682Z,7.57
2018-12-25T07:29:42.513Z,7.47
2018-12-25T07:32:12.363Z,7.57
2018-12-25T07:34:42.255Z,7.30
2018-12-25T07:37:12.075Z,6.90
2018-12-25T07:39:42.181Z,7.77
2018-12-25T07:42:11.986Z,8.23
2018-12-25T07:44:41.843Z,8.80
2018-12-25T07:47:11.732Z,7.23
2018-12-25T07:49:41.465Z,8.10
2018-12-25T07:52:30.106Z,9.17
2018-12-25T07:54:59.907Z,7.47
2018-12-25T07:57:30.020Z,8.27
2018-12-25T08:02:35.211Z,7.93
2018-12-25T08:05:05.026Z,8.13
2018-12-25T08:07:34.790Z,9.00
2018-12-25T08:10:04.647Z,8.70
2018-12-25T08:12:34.690Z,8.90
2018-12-25T08:15:04.450Z,7.87
2018-12-25T08:17:34.291Z,7.73
2018-12-25T08:20:04.024Z,8.17
2018-12-25T08:22:33.863Z,8.30
2018-12-25T08:25:03.649Z,8.13
2018-12-25T08:27:33.383Z,12.80
2018-12-25T08:30:03.172Z,8.10
2018-12-25T08:32:33.203Z,9.07
2018-12-25T08:35:03.050Z,10.53
2018-12-25T08:37:33.154Z,9.10
2018-12-25T08:40:03.030Z,8.87
2018-12-25T08:42:32.827Z,8.83
2018-12-25T08:45:02.717Z,8.37
2018-12-25T08:47:33.282Z,8.43
2018-12-25T08:50:03.283Z,8.67
2018-12-25T08:52:34.114Z,8.43
2018-12-25T08:55:03.945Z,8.70
2018-12-25T08:57:34.112Z,8.57
2018-12-25T09:00:03.971Z,9.60
2018-12-25T09:02:34.130Z,14.00
2018-12-25T09:05:03.968Z,12.97
2018-12-25T09:07:33.819Z,9.93
2018-12-25T09:10:03.689Z,8.87
2018-12-25T09:12:33.490Z,9.17
2018-12-25T09:15:03.452Z,9.40
2018-12-25T09:17:52.109Z,9.70
2018-12-25T09:20:21.935Z,12.50
2018-12-25T09:22:51.905Z,9.67
2018-12-25T09:25:21.724Z,9.40
2018-12-25T09:27:52.362Z,13.47
2018-12-25T09:30:22.265Z,12.07
2018-12-25T09:32:52.371Z,11.33
2018-12-25T09:35:22.535Z,9.13
2018-12-25T09:37:52.372Z,9.17
2018-12-25T09:40:22.128Z,10.80
2018-12-25T09:42:52.334Z,10.37
2018-12-25T09:45:22.159Z,9.43
2018-12-25T09:47:52.167Z,9.43
2018-12-25T09:50:21.903Z,11.37
2018-12-25T09:52:51.622Z,10.37
2018-12-25T09:55:21.421Z,8.90
2018-12-25T09:57:51.201Z,11.70
2018-12-25T10:00:20.949Z,11.93
2018-12-25T10:02:50.762Z,11.10
2018-12-25T10:05:20.528Z,9.10
2018-12-25T10:07:50.737Z,10.07
2018-12-25T10:10:20.585Z,9.93
2018-12-25T10:12:50.355Z,14.23
2018-12-25T10:15:20.275Z,9.87
2018-12-25T10:17:51.062Z,11.20
2018-12-25T10:20:20.958Z,11.00
2018-12-25T10:22:51.178Z,10.40
2018-12-25T10:25:20.948Z,11.20
2018-12-25T10:27:50.871Z,9.27
2018-12-25T10:30:21.128Z,9.23
2018-12-25T10:32:50.940Z,8.43
2018-12-25T10:35:20.774Z,10.10
2018-12-25T10:37:50.622Z,8.83
2018-12-25T10:40:20.423Z,9.23
2018-12-25T10:42:50.222Z,8.43
2018-12-25T10:45:20.263Z,8.93
2018-12-25T10:47:50.545Z,10.53
2018-12-25T10:50:20.988Z,9.10
2018-12-25T10:52:51.061Z,10.00
2018-12-25T10:55:21.194Z,8.73
2018-12-25T10:57:51.126Z,9.03
2018-12-25T11:00:20.931Z,8.50
2018-12-25T11:02:51.360Z,8.80
2018-12-25T11:05:21.576Z,8.90
2018-12-25T11:07:51.703Z,8.57
2018-12-25T11:10:22.330Z,8.07
2018-12-25T11:12:52.595Z,8.83
2018-12-25T11:15:22.790Z,8.63
2018-12-25T11:17:52.546Z,8.53
2018-12-25T11:20:22.987Z,8.20
2018-12-25T11:22:53.032Z,8.60
2018-12-25T11:25:22.973Z,9.10
2018-12-25T11:27:52.957Z,8.30
2018-12-25T11:30:22.908Z,7.90
2018-12-25T11:32:52.938Z,9.00
2018-12-25T11:35:23.184Z,8.00
2018-12-25T11:37:53.172Z,8.53
2018-12-25T11:40:23.751Z,7.60
2018-12-25T11:42:53.958Z,8.60
2018-12-25T11:45:24.299Z,7.53
2018-12-25T11:47:54.596Z,7.70
2018-12-25T11:50:24.868Z,8.60
2018-12-25T11:53:13.674Z,8.57
2018-12-25T11:55:43.924Z,8.13
2018-12-25T11:58:13.777Z,9.60
2018-12-25T12:00:43.994Z,9.00
2018-12-25T12:03:13.897Z,15.10
2018-12-25T12:05:44.149Z,9.07
2018-12-25T12:08:13.951Z,7.90
2018-12-25T12:10:43.918Z,8.60
2018-12-25T12:13:13.766Z,8.53
2018-12-25T12:15:43.562Z,7.83
2018-12-25T12:18:13.319Z,7.83
2018-12-25T12:20:43.766Z,8.00
2018-12-25T12:23:32.678Z,7.83
2018-12-25T12:26:02.515Z,7.53
2018-12-25T12:28:32.491Z,8.93
2018-12-25T12:31:02.691Z,14.00
2018-12-25T12:33:32.506Z,9.50
2018-12-25T12:36:02.831Z,8.77
2018-12-25T12:38:33.129Z,8.60
2018-12-25T12:41:03.180Z,10.30
2018-12-25T12:43:33.520Z,10.50
2018-12-25T12:46:03.440Z,8.17
2018-12-25T12:48:33.422Z,8.63
2018-12-25T12:51:03.243Z,8.43
2018-12-25T12:53:33.580Z,8.40
2018-12-25T12:56:03.753Z,7.83
2018-12-25T12:58:41.284Z,9.17
2018-12-25T13:01:11.150Z,9.00
2018-12-25T13:03:41.119Z,8.17
2018-12-25T13:06:10.952Z,7.47
2018-12-25T13:08:40.851Z,7.30
2018-12-25T13:11:10.844Z,8.00
2018-12-25T13:13:40.786Z,8.40
2018-12-25T13:16:10.890Z,7.80
2018-12-25T13:18:40.835Z,8.37
2018-12-25T13:21:11.550Z,7.23
2018-12-25T13:23:41.808Z,6.63
2018-12-25T13:26:12.081Z,7.63
2018-12-25T13:28:42.155Z,7.00
2018-12-25T13:31:11.986Z,7.53
2018-12-25T13:33:42.785Z,7.00
2018-12-25T13:36:12.686Z,6.80
2018-12-25T13:38:43.316Z,6.70
2018-12-25T13:41:13.136Z,7.27
2018-12-25T13:43:43.102Z,6.87
2018-12-25T13:46:13.103Z,7.33
2018-12-25T13:48:45.654Z,7.53
2018-12-25T13:51:15.495Z,6.93
2018-12-25T13:53:45.310Z,7.77
2018-12-25T13:56:15.732Z,7.20
2018-12-25T13:58:45.525Z,7.30
2018-12-25T14:01:15.499Z,7.27
2018-12-25T14:03:45.473Z,8.40
2018-12-25T14:06:15.834Z,7.90
2018-12-25T14:08:46.190Z,7.33
2018-12-25T14:14:05.613Z,6.53
2018-12-25T14:16:35.901Z,6.70
2018-12-25T14:19:06.078Z,6.80
2018-12-25T14:21:37.427Z,7.63
2018-12-25T14:24:07.743Z,7.13
2018-12-25T14:26:37.598Z,7.00
2018-12-25T14:29:07.398Z,7.33
2018-12-25T14:31:37.335Z,6.63
2018-12-25T14:34:07.102Z,7.33
2018-12-25T14:36:37.371Z,7.07
2018-12-25T14:39:08.941Z,7.37
2018-12-25T14:41:38.994Z,7.00
2018-12-25T14:44:08.900Z,7.33
2018-12-25T14:46:38.841Z,6.80
2018-12-25T14:49:09.183Z,7.10
2018-12-25T14:54:27.915Z,7.57
2018-12-25T14:56:58.563Z,7.47
2018-12-25T14:59:28.439Z,6.17
2018-12-25T15:01:58.325Z,8.63
2018-12-25T15:04:28.961Z,8.57
2018-12-25T15:06:59.249Z,8.20
2018-12-25T15:09:29.118Z,11.77
2018-12-25T15:11:58.989Z,7.97
2018-12-25T15:14:29.029Z,6.60
2018-12-25T15:16:58.941Z,7.23
2018-12-25T15:19:29.596Z,6.63
2018-12-25T15:21:59.376Z,6.43
2018-12-25T15:24:29.696Z,6.47
2018-12-25T15:26:59.622Z,6.47
2018-12-25T15:29:29.412Z,7.03
2018-12-25T15:31:59.401Z,7.37
2018-12-25T15:34:30.038Z,7.10
2018-12-25T15:36:59.908Z,7.80
2018-12-25T15:39:29.832Z,7.03
2018-12-25T15:42:00.088Z,7.40
2018-12-25T15:44:30.712Z,6.90
2018-12-25T15:47:00.570Z,6.57
2018-12-25T15:49:31.163Z,6.10
2018-12-25T15:52:01.152Z,7.43
2018-12-25T15:54:31.489Z,8.03
2018-12-25T15:57:02.965Z,7.23
2018-12-25T15:59:33.424Z,7.60
2018-12-25T16:02:03.244Z,9.47
2018-12-25T16:04:33.414Z,7.30
2018-12-25T16:07:03.250Z,7.63
2018-12-25T16:09:33.464Z,7.57
2018-12-25T16:12:03.513Z,22.93
2018-12-25T16:14:33.849Z,8.10
2018-12-25T16:17:04.102Z,8.00
2018-12-25T16:19:34.010Z,7.90
2018-12-25T16:22:03.917Z,7.17
2018-12-25T16:24:33.563Z,7.73
2018-12-25T16:27:03.651Z,7.37
2018-12-25T16:32:23.329Z,8.07
2018-12-25T16:34:53.125Z,7.43
2018-12-25T16:37:23.368Z,7.57
2018-12-25T16:39:53.924Z,8.50
2018-12-25T16:42:23.732Z,8.67
2018-12-25T16:44:53.782Z,8.10
2018-12-25T16:47:24.181Z,11.03
2018-12-25T16:49:54.054Z,8.53
2018-12-25T16:52:23.871Z,9.60
2018-12-25T16:54:53.716Z,8.40
2018-12-25T16:57:23.528Z,9.27
2018-12-25T16:59:53.168Z,10.43
2018-12-25T17:02:22.823Z,8.07
2018-12-25T17:04:52.440Z,8.53
2018-12-25T17:07:22.054Z,8.43
2018-12-25T17:09:51.699Z,9.53
2018-12-25T17:12:21.644Z,8.90
2018-12-25T17:14:51.298Z,8.93
2018-12-25T17:17:20.954Z,9.30
2018-12-25T17:19:50.587Z,8.93
2018-12-25T17:22:20.212Z,9.50
2018-12-25T17:24:49.860Z,8.70
2018-12-25T17:27:19.484Z,9.37
2018-12-25T17:29:49.145Z,9.63
2018-12-25T17:32:19.521Z,9.03
2018-12-25T17:34:49.159Z,9.60
2018-12-25T17:37:38.090Z,9.37
2018-12-25T17:40:08.566Z,8.90
2018-12-25T17:42:38.491Z,9.83
2018-12-25T17:45:08.621Z,10.67
2018-12-25T17:47:38.775Z,8.77
2018-12-25T17:50:08.719Z,9.37
2018-12-25T17:52:57.518Z,10.53
2018-12-25T17:55:27.427Z,10.23
2018-12-25T17:57:57.558Z,11.17
2018-12-25T18:00:28.207Z,10.33
2018-12-25T18:02:58.050Z,10.07
2018-12-25T18:05:28.637Z,10.50
2018-12-25T18:07:58.610Z,10.27
2018-12-25T18:10:28.506Z,9.70
2018-12-25T18:12:58.652Z,9.77
2018-12-25T18:15:28.490Z,9.13
2018-12-25T18:17:58.587Z,10.00
2018-12-25T18:20:28.430Z,11.40
2018-12-25T18:22:58.319Z,9.90
2018-12-25T18:25:28.173Z,10.97
2018-12-25T18:27:58.068Z,12.37
2018-12-25T18:30:30.201Z,12.00
2018-12-25T18:33:00.661Z,10.50
2018-12-25T18:35:30.872Z,10.40
2018-12-25T18:38:01.457Z,10.17
2018-12-25T18:40:31.176Z,14.67
2018-12-25T18:43:01.535Z,10.00
2018-12-25T18:45:31.598Z,14.13
2018-12-25T18:48:01.603Z,11.70
2018-12-25T18:50:33.660Z,10.77
2018-12-25T18:53:03.648Z,10.97
2018-12-25T18:55:33.901Z,11.50
2018-12-25T18:58:03.715Z,10.97
2018-12-25T19:00:33.985Z,12.07
2018-12-25T19:03:04.203Z,11.03
2018-12-25T19:05:34.096Z,11.43
2018-12-25T19:08:04.159Z,11.03
2018-12-25T19:10:34.085Z,10.83
2018-12-25T19:13:04.063Z,12.17
2018-12-25T19:16:13.555Z,11.80
2018-12-25T19:18:43.328Z,11.90
2018-12-25T19:21:13.216Z,10.90
2018-12-25T19:23:51.990Z,11.30
2018-12-25T19:26:22.261Z,11.57
2018-12-25T19:28:52.128Z,11.07
2018-12-25T19:31:22.084Z,11.13
2018-12-25T19:33:52.227Z,10.37
2018-12-25T19:36:22.073Z,12.33
2018-12-25T19:38:52.096Z,11.70
2018-12-25T19:41:22.030Z,13.37
2018-12-25T19:43:51.885Z,11.20
2018-12-25T19:46:22.463Z,11.33
2018-12-25T19:48:53.450Z,11.77
2018-12-25T19:51:23.379Z,11.87
2018-12-25T19:53:53.388Z,11.07
2018-12-25T19:56:23.160Z,11.73
2018-12-25T19:58:53.527Z,12.23
2018-12-25T20:01:26.114Z,11.07
2018-12-25T20:04:20.894Z,11.73
2018-12-25T20:07:28.616Z,12.03
2018-12-25T20:10:24.235Z,11.10
2018-12-25T20:13:32.202Z,10.83
2018-12-25T20:16:40.278Z,11.33
2018-12-25T20:19:34.548Z,10.60
2018-12-25T20:22:42.107Z,12.17
2018-12-25T20:25:49.708Z,11.60
2018-12-25T20:28:57.650Z,11.37
2018-12-25T20:32:05.759Z,11.73
2018-12-25T20:35:13.912Z,11.73
2018-12-25T20:38:21.690Z,11.10
2018-12-25T20:41:29.510Z,11.70
2018-12-25T20:44:37.261Z,27.60
2018-12-25T20:47:46.532Z,24.40
2018-12-25T20:50:54.448Z,13.87
2018-12-25T20:54:10.473Z,11.73
2018-12-25T20:57:17.999Z,26.53
2018-12-25T21:00:25.750Z,24.37
2018-12-25T21:03:34.064Z,14.23
2018-12-25T21:06:42.021Z,15.13
2018-12-25T21:09:49.530Z,13.83
2018-12-25T21:12:57.232Z,12.33
2018-12-25T21:16:04.711Z,11.93
2018-12-25T21:19:24.757Z,11.83
2018-12-25T21:22:32.569Z,12.27
2018-12-25T21:25:40.056Z,12.27
2018-12-25T21:28:07.771Z,13.30
2018-12-25T21:33:32.481Z,13.57
2018-12-25T21:36:02.178Z,13.70
2018-12-25T21:38:31.802Z,12.93
2018-12-25T21:41:40.686Z,13.03
2018-12-25T21:44:10.302Z,12.03
2018-12-25T21:46:39.928Z,13.27
2018-12-25T21:49:48.757Z,13.43
2018-12-25T21:52:37.555Z,13.03
2018-12-25T21:58:55.657Z,14.70
2018-12-25T22:01:25.396Z,12.30
2018-12-25T22:04:14.796Z,13.23
2018-12-25T22:06:44.420Z,13.30
2018-12-25T22:09:14.072Z,13.57
2018-12-25T22:11:45.359Z,14.07
2018-12-25T22:14:15.033Z,13.87
2018-12-25T22:16:44.681Z,13.33
2018-12-25T22:19:14.422Z,14.30
2018-12-25T22:21:44.065Z,13.53
2018-12-25T22:24:13.813Z,14.53
2018-12-25T22:26:43.426Z,14.37
2018-12-25T22:29:13.065Z,13.90
2018-12-25T22:31:42.676Z,14.30
2018-12-25T22:34:12.636Z,14.20
2018-12-25T22:36:42.324Z,13.53
2018-12-25T22:39:11.950Z,14.23
2018-12-25T22:41:41.588Z,14.37
2018-12-25T22:44:11.206Z,14.13
2018-12-25T22:46:41.184Z,13.97
2018-12-25T22:49:10.951Z,14.37
2018-12-25T22:51:40.906Z,15.23
2018-12-25T22:54:10.768Z,14.23
2018-12-25T22:56:40.728Z,13.83
2018-12-25T22:59:11.136Z,13.83
2018-12-25T23:01:40.979Z,14.40
2018-12-25T23:04:10.830Z,13.67
2018-12-25T23:06:41.088Z,14.57
2018-12-25T23:09:11.049Z,14.33
2018-12-25T23:11:40.835Z,14.33
2018-12-25T23:14:11.079Z,13.23
2018-12-25T23:16:41.150Z,14.03
2018-12-25T23:19:11.507Z,12.77
2018-12-25T23:21:41.284Z,12.67
2018-12-25T23:24:11.169Z,12.10
2018-12-25T23:26:59.876Z,12.53
2018-12-25T23:29:29.667Z,13.07
2018-12-25T23:31:59.507Z,13.87
2018-12-25T23:34:29.379Z,13.77
2018-12-25T23:36:59.235Z,13.27
2018-12-25T23:39:29.053Z,13.80
2018-12-25T23:41:59.511Z,13.13
2018-12-25T23:44:31.076Z,14.30
2018-12-25T23:47:00.891Z,13.73
2018-12-25T23:49:31.214Z,12.87
2018-12-25T23:52:01.033Z,13.07
2018-12-25T23:54:30.875Z,12.70
2018-12-25T23:57:01.059Z,13.70
2018-12-25T23:59:31.260Z,13.80
